Time;durP1;ratioP1;P1;durP2;ratioP2;P2;SDS_P1;SDS_P2;PMS_P1;PMS_P2;Temp;Humidity;BMP_temperature;BMP_pressure;BME280_temperature;BME280_humidity;BME280_pressure;Samples;Min_cycle;Max_cycle;Signal;HPM_P1;HPM_P2
2023/03/10 00:02:50;;;;;;;18.95;9.13;;;;;;;;;;10332794;28;20224;-81
2023/03/10 00:07:51;;;;;;;15.45;7.45;;;;;;;;;;10318277;28;20216;-80
2023/03/10 00:12:52;;;;;;;21.85;8.75;;;;;;;;;;10309504;28;20231;-81
2023/03/10 00:17:54;;;;;;;16.17;6.82;;;;;;;;;;10299182;28;20239;-81
2023/03/10 00:22:55;;;;;;;20.90;8.18;;;;;;;;;;10313727;28;20221;-79
2023/03/10 00:27:56;;;;;;;21.25;7.07;;;;;;;;;;10305083;28;20222;-80
2023/03/10 00:32:57;;;;;;;20.88;7.63;;;;;;;;;;10287743;28;20241;-79
2023/03/10 00:37:58;;;;;;;15.23;6.90;;;;;;;;;;10283470;28;20228;-80
2023/03/10 00:43:00;;;;;;;17.15;6.97;;;;;;;;;;10303910;28;20250;-81
2023/03/10 00:48:00;;;;;;;17.23;7.15;;;;;;;;;;10315815;28;20933;-81
2023/03/10 00:53:01;;;;;;;16.08;6.32;;;;;;;;;;10296851;28;20560;-79
2023/03/10 00:58:03;;;;;;;16.63;6.50;;;;;;;;;;10291538;28;20224;-81
2023/03/10 01:03:04;;;;;;;12.82;5.95;;;;;;;;;;10296775;28;20323;-82
2023/03/10 01:08:05;;;;;;;11.80;5.28;;;;;;;;;;10307596;28;20216;-80
2023/03/10 01:13:06;;;;;;;11.55;6.10;;;;;;;;;;10318478;28;20220;-81
2023/03/10 01:18:07;;;;;;;14.02;6.40;;;;;;;;;;10317232;28;20224;-79
2023/03/10 01:23:22;;;;;;;14.02;5.65;;;;;;;;;;10294293;28;20234;-77
2023/03/10 01:28:24;;;;;;;9.50;6.15;;;;;;;;;;10290708;28;20224;-81
2023/03/10 01:33:25;;;;;;;16.40;6.00;;;;;;;;;;10328435;28;20216;-80
2023/03/10 01:38:26;;;;;;;11.60;5.95;;;;;;;;;;10302932;28;20942;-80
2023/03/10 01:43:29;;;;;;;9.90;4.97;;;;;;;;;;10304630;28;20237;-82
2023/03/10 01:48:33;;;;;;;8.95;5.45;;;;;;;;;;10312008;28;20217;-82
2023/03/10 01:53:34;;;;;;;8.13;4.13;;;;;;;;;;10301721;28;20254;-80
2023/03/10 01:58:40;;;;;;;9.73;4.78;;;;;;;;;;10336630;28;20224;-79
2023/03/10 02:03:51;;;;;;;6.78;4.35;;;;;;;;;;10301610;28;20327;-79
2023/03/10 02:08:54;;;;;;;14.50;5.28;;;;;;;;;;10312014;28;20633;-79
2023/03/10 02:13:55;;;;;;;7.95;4.43;;;;;;;;;;10311929;28;20240;-78
2023/03/10 02:18:56;;;;;;;8.07;4.05;;;;;;;;;;10328914;28;20220;-82
2023/03/10 02:24:16;;;;;;;6.88;4.50;;;;;;;;;;10321834;28;20230;-81
2023/03/10 02:29:20;;;;;;;10.27;4.90;;;;;;;;;;10288096;28;20236;-78
2023/03/10 02:34:21;;;;;;;7.28;4.90;;;;;;;;;;10303055;28;20224;-81
2023/03/10 02:39:22;;;;;;;5.53;3.70;;;;;;;;;;10290717;28;20415;-81
2023/03/10 02:44:24;;;;;;;7.55;3.67;;;;;;;;;;10291756;28;20224;-81
2023/03/10 02:49:26;;;;;;;7.03;4.25;;;;;;;;;;10289402;28;20224;-79
2023/03/10 02:54:27;;;;;;;8.63;3.92;;;;;;;;;;10313304;28;20714;-83
2023/03/10 02:59:28;;;;;;;5.38;3.67;;;;;;;;;;10300835;28;20221;-80
2023/03/10 03:04:30;;;;;;;8.30;4.32;;;;;;;;;;10300742;28;20362;-80
2023/03/10 03:21:09;;;;;;;3.33;2.78;;;;;;;;;;10246553;28;20347;-79
2023/03/10 03:26:14;;;;;;;6.32;3.63;;;;;;;;;;10229888;28;20233;-81
2023/03/10 03:31:19;;;;;;;6.22;3.05;;;;;;;;;;10219202;28;20225;-80
2023/03/10 03:36:22;;;;;;;3.40;2.97;;;;;;;;;;10208470;28;20221;-79
2023/03/10 03:41:24;;;;;;;7.07;3.20;;;;;;;;;;10240624;28;20228;-81
2023/03/10 03:46:25;;;;;;;5.95;3.17;;;;;;;;;;10222407;28;20751;-80
2023/03/10 03:51:27;;;;;;;3.17;2.95;;;;;;;;;;10208998;28;20220;-80
2023/03/10 03:56:28;;;;;;;5.53;3.63;;;;;;;;;;10213499;28;20225;-81
2023/03/10 04:01:29;;;;;;;6.03;3.03;;;;;;;;;;10234168;28;20221;-80
2023/03/10 04:06:32;;;;;;;4.93;3.42;;;;;;;;;;10227262;28;20225;-80
2023/03/10 04:11:33;;;;;;;7.75;3.30;;;;;;;;;;10249312;28;20251;-80
2023/03/10 04:16:35;;;;;;;3.90;3.03;;;;;;;;;;10218491;28;20254;-81
2023/03/10 04:21:38;;;;;;;4.35;2.90;;;;;;;;;;10220242;28;20225;-79
2023/03/10 04:26:39;;;;;;;3.65;2.33;;;;;;;;;;10250242;28;20217;-80
2023/03/10 04:31:41;;;;;;;3.90;3.00;;;;;;;;;;10221643;28;20488;-80
2023/03/10 04:36:44;;;;;;;3.10;2.78;;;;;;;;;;10207497;28;20234;-80
2023/03/10 04:41:45;;;;;;;6.32;3.53;;;;;;;;;;10223961;28;21115;-80
2023/03/10 04:46:46;;;;;;;7.20;3.90;;;;;;;;;;10241570;28;20252;-81
2023/03/10 04:51:48;;;;;;;6.80;4.15;;;;;;;;;;10223930;28;20659;-79
2023/03/10 04:56:49;;;;;;;9.15;4.28;;;;;;;;;;10212030;28;20256;-77
2023/03/10 05:01:51;;;;;;;5.88;4.07;;;;;;;;;;10264744;28;20257;-79
2023/03/10 05:06:52;;;;;;;5.60;3.50;;;;;;;;;;10251608;28;20745;-79
2023/03/10 05:12:06;;;;;;;6.90;3.97;;;;;;;;;;10256799;28;20225;-80
2023/03/10 05:17:10;;;;;;;6.05;4.25;;;;;;;;;;10220223;28;20233;-81
2023/03/10 05:22:12;;;;;;;9.82;4.88;;;;;;;;;;10244214;28;20221;-79
2023/03/10 05:27:13;;;;;;;7.93;4.55;;;;;;;;;;10236698;28;20225;-80
2023/03/10 05:32:17;;;;;;;13.23;5.10;;;;;;;;;;10231286;28;20226;-80
2023/03/10 05:37:21;;;;;;;9.70;4.97;;;;;;;;;;10224212;28;20256;-79
2023/03/10 05:42:22;;;;;;;14.18;5.78;;;;;;;;;;10238199;28;21065;-79
2023/03/10 05:47:24;;;;;;;11.23;5.20;;;;;;;;;;10219236;28;20270;-79
2023/03/10 05:52:25;;;;;;;10.18;4.70;;;;;;;;;;10239512;28;20224;-79
2023/03/10 05:57:27;;;;;;;10.77;5.40;;;;;;;;;;10264914;28;20233;-78
2023/03/10 06:02:28;;;;;;;10.23;5.47;;;;;;;;;;10243426;28;20213;-79
2023/03/10 06:07:29;;;;;;;9.73;5.13;;;;;;;;;;10283730;28;20797;-81
2023/03/10 06:12:31;;;;;;;16.55;5.88;;;;;;;;;;10269398;28;20264;-80
2023/03/10 06:17:32;;;;;;;16.05;5.68;;;;;;;;;;10292040;28;20225;-79
2023/03/10 06:22:34;;;;;;;15.50;6.60;;;;;;;;;;10266680;28;20232;-81
2023/03/10 06:27:35;;;;;;;11.98;4.93;;;;;;;;;;10269594;28;20225;-81
2023/03/10 06:32:36;;;;;;;14.48;5.90;;;;;;;;;;10265255;28;20244;-81
2023/03/10 06:37:37;;;;;;;15.18;5.80;;;;;;;;;;10244873;28;20221;-82
2023/03/10 06:42:39;;;;;;;15.88;5.95;;;;;;;;;;10257559;28;20722;-81
2023/03/10 06:47:41;;;;;;;15.38;5.35;;;;;;;;;;10280135;28;20243;-82
2023/03/10 06:52:44;;;;;;;11.85;5.72;;;;;;;;;;10249600;28;20224;-81
2023/03/10 06:57:45;;;;;;;13.98;5.68;;;;;;;;;;10281867;28;20243;-78
2023/03/10 07:02:46;;;;;;;9.15;3.58;;;;;;;;;;10274235;28;20221;-78
2023/03/10 07:07:49;;;;;;;10.52;5.03;;;;;;;;;;10277556;28;20764;-81
2023/03/10 07:12:53;;;;;;;13.25;5.55;;;;;;;;;;10269629;28;20228;-79
2023/03/10 07:17:55;;;;;;;10.98;5.25;;;;;;;;;;10276015;28;20236;-78
2023/03/10 07:22:56;;;;;;;9.85;4.28;;;;;;;;;;10252092;28;20235;-79
2023/03/10 07:27:57;;;;;;;14.65;5.43;;;;;;;;;;10246023;28;20216;-77
2023/03/10 07:32:58;;;;;;;16.05;6.15;;;;;;;;;;10272201;28;20221;-78
2023/03/10 07:37:59;;;;;;;16.73;6.57;;;;;;;;;;10242437;28;20231;-78
2023/03/10 07:43:00;;;;;;;16.70;6.85;;;;;;;;;;10246386;28;20600;-77
2023/03/10 07:48:03;;;;;;;14.98;6.05;;;;;;;;;;10257444;28;20311;-77
2023/03/10 07:53:04;;;;;;;16.33;5.93;;;;;;;;;;10269308;28;20716;-77
2023/03/10 07:58:05;;;;;;;21.55;5.75;;;;;;;;;;10249162;28;20240;-77
2023/03/10 08:03:06;;;;;;;11.85;5.25;;;;;;;;;;10269913;28;20251;-78
2023/03/10 08:08:07;;;;;;;11.45;6.00;;;;;;;;;;10243161;28;20221;-77
2023/03/10 08:13:08;;;;;;;11.57;4.82;;;;;;;;;;10272469;28;20224;-79
2023/03/10 08:18:09;;;;;;;10.02;4.45;;;;;;;;;;10288712;28;21425;-78
2023/03/10 08:23:10;;;;;;;9.15;5.32;;;;;;;;;;10286679;28;20232;-77
2023/03/10 08:28:11;;;;;;;9.50;4.05;;;;;;;;;;10278488;28;20589;-78
2023/03/10 08:33:12;;;;;;;4.03;2.35;;;;;;;;;;10268828;28;20282;-77
2023/03/10 08:38:13;;;;;;;2.35;2.13;;;;;;;;;;10271070;28;20238;-79
2023/03/10 08:43:14;;;;;;;3.78;1.80;;;;;;;;;;10251787;28;20344;-78
2023/03/10 08:48:15;;;;;;;1.38;1.38;;;;;;;;;;10265023;28;20361;-78
2023/03/10 08:53:17;;;;;;;2.13;1.42;;;;;;;;;;10280165;28;20244;-78
2023/03/10 08:58:18;;;;;;;4.40;1.50;;;;;;;;;;10266457;28;20343;-79
2023/03/10 09:03:19;;;;;;;2.53;1.45;;;;;;;;;;10245437;28;20236;-80
2023/03/10 09:08:20;;;;;;;8.82;4.75;;;;;;;;;;10253610;28;20221;-79
2023/03/10 09:13:22;;;;;;;6.10;4.10;;;;;;;;;;10279267;28;20213;-79
2023/03/10 09:18:23;;;;;;;8.93;5.45;;;;;;;;;;10257419;28;20240;-79
2023/03/10 09:23:24;;;;;;;10.18;5.20;;;;;;;;;;10252929;28;20453;-80
2023/03/10 09:28:25;;;;;;;7.47;5.07;;;;;;;;;;10270914;28;20221;-79
2023/03/10 09:33:26;;;;;;;5.07;4.32;;;;;;;;;;10277277;28;20225;-79
2023/03/10 09:38:27;;;;;;;8.82;5.07;;;;;;;;;;10262223;28;20224;-80
2023/03/10 09:43:30;;;;;;;5.03;4.55;;;;;;;;;;10269272;28;20323;-79
2023/03/10 09:48:31;;;;;;;5.03;3.45;;;;;;;;;;10268664;28;20272;-80
2023/03/10 09:53:51;;;;;;;3.08;2.80;;;;;;;;;;10282148;28;20694;-78
2023/03/10 09:59:08;;;;;;;6.30;3.45;;;;;;;;;;10269507;28;20228;-79
2023/03/10 10:04:21;;;;;;;3.58;2.70;;;;;;;;;;10276168;28;20236;-79
2023/03/10 10:09:42;;;;;;;4.82;3.15;;;;;;;;;;10279416;28;20220;-80
2023/03/10 10:14:44;;;;;;;2.83;2.72;;;;;;;;;;10286492;28;20228;-79
2023/03/10 10:19:47;;;;;;;3.58;3.28;;;;;;;;;;10279879;28;20229;-81
2023/03/10 10:25:07;;;;;;;3.92;2.90;;;;;;;;;;10282533;28;20956;-81
2023/03/10 10:30:26;;;;;;;4.93;2.70;;;;;;;;;;10260428;28;20204;-78
2023/03/10 10:35:29;;;;;;;3.65;3.33;;;;;;;;;;10267384;28;20216;-79
2023/03/10 10:40:32;;;;;;;3.38;3.03;;;;;;;;;;10245469;28;20235;-80
2023/03/10 10:45:34;;;;;;;4.00;3.42;;;;;;;;;;10287681;28;20722;-82
2023/03/10 10:50:36;;;;;;;3.00;2.80;;;;;;;;;;10269170;28;20260;-81
2023/03/10 10:55:37;;;;;;;3.58;3.33;;;;;;;;;;10267962;28;20286;-82
2023/03/10 11:00:38;;;;;;;2.95;2.75;;;;;;;;;;10267587;28;20232;-78
2023/03/10 11:05:39;;;;;;;2.38;2.17;;;;;;;;;;10273404;28;20287;-80
2023/03/10 11:10:41;;;;;;;2.15;2.05;;;;;;;;;;10265457;28;20702;-81
2023/03/10 11:15:50;;;;;;;1.60;1.60;;;;;;;;;;10256445;28;20608;-81
2023/03/10 11:21:01;;;;;;;0.85;0.85;;;;;;;;;;10268851;28;20239;-82
2023/03/10 11:26:16;;;;;;;0.95;0.95;;;;;;;;;;10277959;28;20236;-80
2023/03/10 11:31:38;;;;;;;2.05;1.88;;;;;;;;;;10288372;28;21601;-80
2023/03/10 11:59:07;;;;;;;5.65;5.05;;;;;;;;;;10364593;28;20219;-79
2023/03/10 12:04:22;;;;;;;5.70;4.90;;;;;;;;;;10354942;28;20219;-80
2023/03/10 12:09:33;;;;;;;3.60;3.40;;;;;;;;;;10337926;28;20359;-79
2023/03/10 12:14:34;;;;;;;2.75;2.65;;;;;;;;;;10350787;28;20816;-81
2023/03/10 12:19:55;;;;;;;1.92;1.83;;;;;;;;;;10343004;28;20241;-81
2023/03/10 12:25:21;;;;;;;2.15;2.05;;;;;;;;;;10333460;28;20322;-80
2023/03/10 12:30:41;;;;;;;1.40;1.33;;;;;;;;;;10316913;28;20222;-79
2023/03/10 12:35:47;;;;;;;2.25;2.15;;;;;;;;;;10348294;28;20211;-81
2023/03/10 12:40:49;;;;;;;1.63;1.58;;;;;;;;;;10324794;28;20703;-80
2023/03/10 12:45:50;;;;;;;1.40;1.40;;;;;;;;;;10361593;28;20231;-80
2023/03/10 12:51:00;;;;;;;1.25;1.25;;;;;;;;;;10378201;28;20239;-81
2023/03/10 12:56:21;;;;;;;0.85;0.85;;;;;;;;;;10355685;28;20628;-80
2023/03/10 13:01:23;;;;;;;1.27;1.27;;;;;;;;;;10377181;28;20219;-80
2023/03/10 13:06:29;;;;;;;1.15;1.15;;;;;;;;;;10371690;28;20234;-81
2023/03/10 13:11:38;;;;;;;0.80;0.80;;;;;;;;;;10383534;28;20216;-81
2023/03/10 13:16:40;;;;;;;1.05;1.05;;;;;;;;;;10392722;28;20235;-79
2023/03/10 13:21:41;;;;;;;1.63;1.45;;;;;;;;;;10378097;28;20242;-80
2023/03/10 13:26:42;;;;;;;1.15;1.15;;;;;;;;;;10380916;28;21126;-80
2023/03/10 13:31:51;;;;;;;2.55;1.35;;;;;;;;;;10354813;28;20226;-81
2023/03/10 13:36:52;;;;;;;0.93;0.93;;;;;;;;;;10357477;28;20228;-81
2023/03/10 13:41:54;;;;;;;0.80;0.80;;;;;;;;;;10361080;28;20350;-82
2023/03/10 13:46:57;;;;;;;0.90;0.90;;;;;;;;;;10338886;28;20463;-82
2023/03/10 13:51:59;;;;;;;1.48;1.40;;;;;;;;;;10360486;28;20711;-79
2023/03/10 13:57:02;;;;;;;1.27;1.27;;;;;;;;;;10365913;28;20224;-82
2023/03/10 14:02:04;;;;;;;1.15;1.10;;;;;;;;;;10372153;28;20207;-81
2023/03/10 14:07:06;;;;;;;1.10;0.98;;;;;;;;;;10379697;28;20226;-80
2023/03/10 14:12:09;;;;;;;1.70;1.65;;;;;;;;;;10402630;28;20228;-81
2023/03/10 14:17:30;;;;;;;1.25;1.25;;;;;;;;;;10371319;28;20212;-78
2023/03/10 14:22:36;;;;;;;2.72;1.38;;;;;;;;;;10372748;28;20783;-82
2023/03/10 14:27:38;;;;;;;1.38;1.30;;;;;;;;;;10376494;28;20234;-81
2023/03/10 14:32:39;;;;;;;1.13;1.10;;;;;;;;;;10358956;28;20287;-80
2023/03/10 14:37:40;;;;;;;1.35;1.35;;;;;;;;;;10353345;28;20231;-80
2023/03/10 14:42:42;;;;;;;1.15;1.15;;;;;;;;;;10355617;28;20366;-80
2023/03/10 14:47:43;;;;;;;1.63;1.52;;;;;;;;;;10341688;28;20246;-81
2023/03/10 14:52:44;;;;;;;1.77;1.70;;;;;;;;;;10341116;28;20358;-79
2023/03/10 14:57:46;;;;;;;2.17;1.98;;;;;;;;;;10358121;28;20222;-81
2023/03/10 15:02:47;;;;;;;2.08;1.90;;;;;;;;;;10343969;28;20219;-80
2023/03/10 15:07:49;;;;;;;1.95;1.50;;;;;;;;;;10327779;28;20215;-80
2023/03/10 15:12:51;;;;;;;1.98;1.88;;;;;;;;;;10364947;28;20211;-79
2023/03/10 15:17:52;;;;;;;1.60;1.60;;;;;;;;;;10320412;28;20594;-81
2023/03/10 15:22:53;;;;;;;2.03;1.92;;;;;;;;;;10354047;28;20263;-80
2023/03/10 15:27:54;;;;;;;1.45;1.45;;;;;;;;;;10337911;28;20239;-78
2023/03/10 15:32:55;;;;;;;2.38;1.92;;;;;;;;;;10340975;28;20347;-79
2023/03/10 15:37:57;;;;;;;1.38;1.27;;;;;;;;;;10345332;28;20729;-79
2023/03/10 15:42:58;;;;;;;1.63;1.58;;;;;;;;;;10328522;28;20671;-79
2023/03/10 15:48:00;;;;;;;1.75;1.65;;;;;;;;;;10336058;28;20251;-79
2023/03/10 15:53:02;;;;;;;2.30;1.67;;;;;;;;;;10342382;28;20215;-79
2023/03/10 15:58:02;;;;;;;1.70;1.70;;;;;;;;;;10340015;28;20690;-79
2023/03/10 16:03:03;;;;;;;5.43;2.63;;;;;;;;;;10337961;28;20229;-79
2023/03/10 16:08:05;;;;;;;4.95;4.45;;;;;;;;;;10326783;28;20733;-79
2023/03/10 16:13:06;;;;;;;4.38;3.10;;;;;;;;;;10358383;28;20223;-80
2023/03/10 16:18:07;;;;;;;3.63;2.63;;;;;;;;;;10321722;28;20293;-80
2023/03/10 16:23:08;;;;;;;4.10;2.90;;;;;;;;;;10357864;28;20296;-79
2023/03/10 16:28:09;;;;;;;2.92;2.50;;;;;;;;;;10361629;28;20697;-78
2023/03/10 16:33:10;;;;;;;2.47;2.28;;;;;;;;;;10339185;28;20856;-77
2023/03/10 16:38:11;;;;;;;3.00;2.70;;;;;;;;;;10345832;28;20667;-79
2023/03/10 16:43:12;;;;;;;4.05;3.72;;;;;;;;;;10367823;28;20689;-80
2023/03/10 16:48:13;;;;;;;4.90;2.88;;;;;;;;;;10357508;28;20230;-75
2023/03/10 16:53:14;;;;;;;4.00;3.40;;;;;;;;;;10340942;28;20231;-77
2023/03/10 16:58:15;;;;;;;3.83;3.50;;;;;;;;;;10351089;28;21087;-77
2023/03/10 17:03:16;;;;;;;3.17;2.75;;;;;;;;;;10343745;28;20844;-79
2023/03/10 17:08:17;;;;;;;4.53;3.45;;;;;;;;;;10341583;28;20258;-79
2023/03/10 17:13:18;;;;;;;4.28;3.88;;;;;;;;;;10362358;28;20226;-78
2023/03/10 17:18:19;;;;;;;5.32;3.80;;;;;;;;;;10363881;28;20280;-81
2023/03/10 17:23:22;;;;;;;4.13;3.70;;;;;;;;;;10331123;28;20314;-80
2023/03/10 17:28:23;;;;;;;4.32;3.33;;;;;;;;;;10356819;28;20754;-78
2023/03/10 17:33:24;;;;;;;5.15;3.22;;;;;;;;;;10342123;28;20261;-79
2023/03/10 17:38:25;;;;;;;3.17;2.88;;;;;;;;;;10315888;28;20825;-79
2023/03/10 17:43:30;;;;;;;3.20;2.70;;;;;;;;;;10356108;28;20215;-82
2023/03/10 17:48:31;;;;;;;3.78;3.47;;;;;;;;;;10357816;28;20254;-81
2023/03/10 17:53:32;;;;;;;3.78;3.25;;;;;;;;;;10355473;28;20297;-81
2023/03/10 17:58:34;;;;;;;3.97;3.30;;;;;;;;;;10330599;28;20223;-80
2023/03/10 18:03:35;;;;;;;5.10;3.67;;;;;;;;;;10292234;28;20247;-81
2023/03/10 18:08:37;;;;;;;3.35;2.90;;;;;;;;;;10320548;28;20239;-81
2023/03/10 18:13:38;;;;;;;5.90;2.88;;;;;;;;;;10366833;28;20212;-81
2023/03/10 18:18:39;;;;;;;3.95;3.65;;;;;;;;;;10344831;28;20342;-80
2023/03/10 18:23:40;;;;;;;5.82;3.70;;;;;;;;;;10329865;28;20229;-80
2023/03/10 18:28:41;;;;;;;6.20;4.45;;;;;;;;;;10338739;28;20312;-82
2023/03/10 18:33:42;;;;;;;8.05;4.93;;;;;;;;;;10334665;28;20324;-79
2023/03/10 18:38:44;;;;;;;6.85;3.83;;;;;;;;;;10332272;28;20891;-83
2023/03/10 18:43:45;;;;;;;5.97;3.90;;;;;;;;;;10343544;28;20227;-82
2023/03/10 18:48:46;;;;;;;7.25;4.60;;;;;;;;;;10344565;28;20231;-80
2023/03/10 18:53:47;;;;;;;8.80;4.80;;;;;;;;;;10331633;28;20233;-79
2023/03/10 18:58:48;;;;;;;9.52;4.82;;;;;;;;;;10328845;28;20994;-82
2023/03/10 19:03:49;;;;;;;7.72;5.40;;;;;;;;;;10333214;28;20214;-75
2023/03/10 19:08:51;;;;;;;5.88;4.47;;;;;;;;;;10362147;28;21471;-81
2023/03/10 19:13:52;;;;;;;9.02;4.70;;;;;;;;;;10343459;28;20256;-78
2023/03/10 19:18:53;;;;;;;7.32;5.15;;;;;;;;;;10346210;28;20966;-82
2023/03/10 19:23:54;;;;;;;6.93;4.63;;;;;;;;;;10316529;28;20237;-80
2023/03/10 19:28:55;;;;;;;5.75;4.60;;;;;;;;;;10340219;28;20223;-83
2023/03/10 19:33:56;;;;;;;10.90;5.68;;;;;;;;;;10339759;28;20255;-83
2023/03/10 19:38:57;;;;;;;11.70;6.65;;;;;;;;;;10329662;28;20263;-82
2023/03/10 19:44:01;;;;;;;10.50;5.47;;;;;;;;;;10323947;28;20310;-84
2023/03/10 19:49:04;;;;;;;7.18;5.43;;;;;;;;;;10348385;28;20252;-83
2023/03/10 19:54:06;;;;;;;6.07;5.05;;;;;;;;;;10338477;28;20220;-83
2023/03/10 19:59:07;;;;;;;6.50;4.57;;;;;;;;;;10350498;28;21860;-84
2023/03/10 20:04:09;;;;;;;6.13;4.60;;;;;;;;;;10324745;28;21194;-85
2023/03/10 20:09:10;;;;;;;9.75;3.92;;;;;;;;;;10343373;28;20208;-84
2023/03/10 20:14:11;;;;;;;6.55;3.55;;;;;;;;;;10351055;28;20216;-83
2023/03/10 20:19:12;;;;;;;7.78;4.32;;;;;;;;;;10351652;28;20219;-80
2023/03/10 20:24:13;;;;;;;9.65;4.70;;;;;;;;;;10334595;28;20238;-81
2023/03/10 20:29:14;;;;;;;4.65;4.22;;;;;;;;;;10355301;28;20258;-81
2023/03/10 20:34:20;;;;;;;10.18;4.55;;;;;;;;;;10355798;28;20831;-81
2023/03/10 20:39:21;;;;;;;4.65;4.07;;;;;;;;;;10352755;28;20231;-79
2023/03/10 20:44:22;;;;;;;5.25;3.53;;;;;;;;;;10360956;28;20893;-80
2023/03/10 20:49:23;;;;;;;5.20;3.40;;;;;;;;;;10367865;28;20251;-81
2023/03/10 20:54:24;;;;;;;7.47;4.35;;;;;;;;;;10341075;28;20228;-80
2023/03/10 20:59:25;;;;;;;7.22;3.63;;;;;;;;;;10341478;28;20508;-81
2023/03/10 21:04:26;;;;;;;5.10;3.53;;;;;;;;;;10359612;28;20306;-80
2023/03/10 21:09:27;;;;;;;3.60;3.13;;;;;;;;;;10371932;28;20224;-82
2023/03/10 21:14:28;;;;;;;3.53;3.15;;;;;;;;;;10352398;28;20226;-79
2023/03/10 21:19:29;;;;;;;6.47;3.47;;;;;;;;;;10373369;28;20226;-82
2023/03/10 21:24:30;;;;;;;6.95;3.75;;;;;;;;;;10367903;28;20727;-81
2023/03/10 21:29:32;;;;;;;4.38;3.08;;;;;;;;;;10348456;28;20223;-82
2023/03/10 21:34:34;;;;;;;6.93;3.10;;;;;;;;;;10354921;28;20219;-81
2023/03/10 21:39:35;;;;;;;3.92;3.20;;;;;;;;;;10343991;28;20257;-82
2023/03/10 21:44:36;;;;;;;3.47;2.45;;;;;;;;;;10361780;28;20228;-81
2023/03/10 21:49:37;;;;;;;8.15;5.35;;;;;;;;;;10361783;28;20373;-80
2023/03/10 21:54:38;;;;;;;6.95;4.15;;;;;;;;;;10376432;28;20280;-83
2023/03/10 21:59:39;;;;;;;1.83;1.73;;;;;;;;;;10377313;28;20274;-83
2023/03/10 22:04:40;;;;;;;2.22;2.13;;;;;;;;;;10373202;28;20857;-81
2023/03/10 22:09:41;;;;;;;2.45;1.67;;;;;;;;;;10361186;28;20212;-80
2023/03/10 22:14:42;;;;;;;1.60;1.50;;;;;;;;;;10364865;28;20215;-82
2023/03/10 22:19:43;;;;;;;1.55;1.45;;;;;;;;;;10361637;28;20303;-81
2023/03/10 22:24:44;;;;;;;2.20;1.08;;;;;;;;;;10345158;28;20223;-83
2023/03/10 22:29:45;;;;;;;1.30;1.30;;;;;;;;;;10366836;28;20250;-82
2023/03/10 22:34:46;;;;;;;1.60;0.90;;;;;;;;;;10357693;28;20250;-83
2023/03/10 22:39:47;;;;;;;0.93;0.90;;;;;;;;;;10342686;28;20215;-81
2023/03/10 22:44:48;;;;;;;0.80;0.80;;;;;;;;;;10375419;28;20230;-83
2023/03/10 22:49:49;;;;;;;1.38;1.27;;;;;;;;;;10350425;28;20744;-79
2023/03/10 22:54:50;;;;;;;1.15;1.10;;;;;;;;;;10359637;28;20242;-80
2023/03/10 22:59:51;;;;;;;1.27;1.27;;;;;;;;;;10348962;28;20314;-82
2023/03/10 23:04:52;;;;;;;0.93;0.90;;;;;;;;;;10355019;28;20870;-80
2023/03/10 23:09:53;;;;;;;1.00;1.00;;;;;;;;;;10368270;28;20235;-78
2023/03/10 23:14:55;;;;;;;0.70;0.70;;;;;;;;;;10347143;28;20814;-80
2023/03/10 23:19:57;;;;;;;1.05;0.93;;;;;;;;;;10355234;28;20219;-81
2023/03/10 23:24:58;;;;;;;0.68;0.68;;;;;;;;;;10349700;28;20243;-80
2023/03/10 23:29:59;;;;;;;0.63;0.63;;;;;;;;;;10358668;28;20234;-84
2023/03/10 23:35:04;;;;;;;1.42;1.00;;;;;;;;;;10377125;28;20219;-80
2023/03/10 23:40:10;;;;;;;0.73;0.73;;;;;;;;;;10389638;28;20214;-80
2023/03/10 23:45:13;;;;;;;1.33;1.33;;;;;;;;;;10380459;28;20227;-81
2023/03/10 23:50:21;;;;;;;2.15;1.20;;;;;;;;;;10368680;28;20207;-81
2023/03/10 23:55:24;;;;;;;1.90;1.80;;;;;;;;;;10335324;28;20274;-78
